Port Heiden Airport
PAPH : rendu visible

Aérodrome :











RETROUVEZ-NOUS SUR...

 
LOGIN :

S'inscrire | Disclaimer

   EN    FR    IT 

 









Légende :    VFR   VFR Marginal   IFR   IFR Intensif   IFR Très Intensif
Visi : 
Plafond : 
>= 8 km
>= 3000ft
5 à 8 km
1000 à 3000 ft
1500m à 5 km
500 à 1000 ft
800 à 1500m
200 à 500 ft
< 800m
< 200 ft
Symboles :   Orages  Brouillard  Fortes neiges  Fortes précipitations  Vent > 20 kt






- Altitude de l'aérodrome : 95 ft
- Code IATA : PTH


PAPH - Port Heiden

DERNIER METAR :
  • 120856Z AUTO 26003KT 10SM BKN002 BKN025 OVC049 08/08 A2981 RMK AO2 RAB15E26 SLP095 P0000 60000 T00830083 51014

METARs EXPIRÉS :
  • 120822Z AUTO 26004KT 3SM -RA BR OVC002 08/08 A2980 RMK AO2 RAB15 P0000
  • 120810Z AUTO 26004KT 1 3/4SM BR OVC002 08/08 A2980 RMK AO2
  • 120756Z AUTO 27004KT 10SM OVC002 08/08 A2981 RMK AO2 RAE51 SLP093 P0000 T00830083 401220083
  • 120749Z AUTO 27004KT 5SM -RA BR OVC002 08/08 A2980 RMK AO2 P0000
  • 120743Z AUTO 26004KT 1/2SM -RA FG OVC002 08/08 A2979 RMK AO2 P0000
  • 120726Z AUTO 28004KT 4SM -RA BR OVC002 08/08 A2980 RMK AO2 P0000
  • 120656Z AUTO 26005KT 1/4SM -RA FG OVC002 08/08 A2978 RMK AO2 RAB09 SLP084 P0000 T00830083

TAF N/A
FIR PAZA / Amérique du Nord



MET'MAP, la Météo Aéronautique d'un coup d'oeil ! - Copyright ORBIFLY Décembre 2007 - Disclaimer

ORBIFLY MET'MAP TEAM :

Programmation & Développement : Alexandra Zaïnal
Sur une idée originale de : Baudouin d'Aumeries
Assistance à la programmation : Marc-Olivier Méhu
Soutien technique & logistique : Manuel Goepfert

Contact : metmap@orbifly.com




SOURCES & CREDITS :

   NOAA       Earth
Advisory